Time;durP1;ratioP1;P1;durP2;ratioP2;P2;SDS_P1;SDS_P2;PMS_P1;PMS_P2;Temp;Humidity;BMP_temperature;BMP_pressure;BME280_temperature;BME280_humidity;BME280_pressure;Samples;Min_cycle;Max_cycle;Signal;HPM_P1;HPM_P2
2023/09/06 00:00:44;;;;;;;509.35;148.48;;;;;;;;;;4993490;28;20022;-54
2023/09/06 00:03:10;;;;;;;616.25;174.10;;;;;;;;;;4988611;28;20293;-55
2023/09/06 00:05:41;;;;;;;561.65;170.98;;;;;;;;;;4991394;28;20049;-54
2023/09/06 00:08:08;;;;;;;506.48;155.15;;;;;;;;;;4991696;28;20038;-53
2023/09/06 00:10:33;;;;;;;479.25;154.32;;;;;;;;;;4987715;28;20042;-57
2023/09/06 00:12:58;;;;;;;519.10;153.20;;;;;;;;;;4987606;28;20378;-56
2023/09/06 00:15:24;;;;;;;424.13;135.30;;;;;;;;;;5002681;28;20236;-53
2023/09/06 00:17:49;;;;;;;465.63;146.37;;;;;;;;;;4991759;28;20014;-54
2023/09/06 00:20:24;;;;;;;680.80;164.97;;;;;;;;;;4994007;28;20277;-56
2023/09/06 00:22:59;;;;;;;487.27;161.90;;;;;;;;;;4991826;28;20269;-54
2023/09/06 00:25:25;;;;;;;539.72;164.85;;;;;;;;;;4991364;28;21507;-57
2023/09/06 00:27:51;;;;;;;472.90;154.85;;;;;;;;;;4993686;28;20014;-54
2023/09/06 00:30:18;;;;;;;599.42;165.55;;;;;;;;;;4987573;28;20029;-55
2023/09/06 00:32:44;;;;;;;564.88;161.25;;;;;;;;;;4989522;28;20010;-55
2023/09/06 00:35:09;;;;;;;549.15;147.32;;;;;;;;;;4989007;28;20048;-54
2023/09/06 00:37:35;;;;;;;510.15;138.85;;;;;;;;;;4989677;28;20026;-56
2023/09/06 00:40:00;;;;;;;527.67;148.05;;;;;;;;;;4993202;28;20033;-55
2023/09/06 00:42:30;;;;;;;501.80;160.57;;;;;;;;;;4989183;28;20038;-55
2023/09/06 00:44:55;;;;;;;477.85;145.25;;;;;;;;;;4996499;28;20078;-57
2023/09/06 00:47:21;;;;;;;627.78;170.15;;;;;;;;;;4986914;28;20479;-57
2023/09/06 00:49:46;;;;;;;503.33;163.27;;;;;;;;;;4991848;28;20017;-56
2023/09/06 00:52:12;;;;;;;664.05;175.98;;;;;;;;;;4989739;28;20037;-55
2023/09/06 00:54:39;;;;;;;521.35;161.75;;;;;;;;;;4992203;28;20022;-54
2023/09/06 00:57:05;;;;;;;505.30;161.95;;;;;;;;;;4991367;28;20072;-56
2023/09/06 00:59:31;;;;;;;522.92;160.55;;;;;;;;;;4988938;28;20030;-56
2023/09/06 01:01:56;;;;;;;475.13;167.40;;;;;;;;;;4989862;28;20058;-53
2023/09/06 01:04:21;;;;;;;600.08;171.98;;;;;;;;;;4990601;28;20045;-55
2023/09/06 01:06:50;;;;;;;504.80;160.45;;;;;;;;;;4988649;28;20025;-56
2023/09/06 01:09:16;;;;;;;629.90;170.73;;;;;;;;;;4991402;28;20018;-54
2023/09/06 01:11:41;;;;;;;500.30;164.90;;;;;;;;;;4990011;28;20036;-54
2023/09/06 01:14:06;;;;;;;539.27;164.30;;;;;;;;;;4994417;28;20159;-55
2023/09/06 01:16:36;;;;;;;479.92;165.93;;;;;;;;;;4988153;28;20350;-54
2023/09/06 01:19:01;;;;;;;434.80;151.82;;;;;;;;;;4992489;28;20296;-55
2023/09/06 01:21:47;;;;;;;663.00;172.85;;;;;;;;;;4993621;28;20723;-57
2023/09/06 01:24:14;;;;;;;555.70;143.80;;;;;;;;;;4993244;28;20068;-54
2023/09/06 01:26:39;;;;;;;493.00;121.10;;;;;;;;;;4990877;28;20030;-56
2023/09/06 01:29:04;;;;;;;571.33;140.35;;;;;;;;;;4978067;28;20018;-54
2023/09/06 01:31:30;;;;;;;566.42;142.73;;;;;;;;;;4990207;28;20053;-54
2023/09/06 01:33:55;;;;;;;636.50;148.40;;;;;;;;;;4987869;28;20148;-55
2023/09/06 01:36:20;;;;;;;477.50;155.60;;;;;;;;;;4989047;28;20038;-54
2023/09/06 01:38:46;;;;;;;483.42;160.05;;;;;;;;;;4995619;28;20634;-55
2023/09/06 01:41:11;;;;;;;573.23;167.23;;;;;;;;;;4992259;28;20575;-55
2023/09/06 01:43:37;;;;;;;500.17;165.55;;;;;;;;;;4996531;28;20723;-55
2023/09/06 01:46:02;;;;;;;555.13;172.52;;;;;;;;;;4993592;28;20065;-55
2023/09/06 01:48:27;;;;;;;527.15;173.73;;;;;;;;;;4994143;28;20601;-54
2023/09/06 01:50:54;;;;;;;512.83;167.87;;;;;;;;;;4993217;28;20040;-54
2023/09/06 01:53:20;;;;;;;494.65;151.85;;;;;;;;;;4995589;28;20264;-54
2023/09/06 01:55:45;;;;;;;531.20;150.73;;;;;;;;;;4989884;28;20034;-54
2023/09/06 01:58:11;;;;;;;496.87;149.77;;;;;;;;;;4991092;28;20493;-55
2023/09/06 02:00:37;;;;;;;469.92;160.60;;;;;;;;;;4989069;28;20271;-55
2023/09/06 02:03:03;;;;;;;533.95;165.15;;;;;;;;;;4988609;28;20045;-54
2023/09/06 02:05:31;;;;;;;532.70;167.68;;;;;;;;;;4993353;28;20038;-55
2023/09/06 02:07:57;;;;;;;487.90;166.43;;;;;;;;;;4993296;28;20117;-54
2023/09/06 02:10:22;;;;;;;568.00;182.20;;;;;;;;;;4988892;28;20093;-53
2023/09/06 02:12:47;;;;;;;525.97;178.33;;;;;;;;;;4990243;28;20033;-55
2023/09/06 02:15:14;;;;;;;505.87;181.10;;;;;;;;;;4989377;28;20276;-55
2023/09/06 02:17:42;;;;;;;585.88;184.85;;;;;;;;;;4993981;28;20272;-54
2023/09/06 02:20:16;;;;;;;554.60;190.00;;;;;;;;;;4994352;28;20018;-54
2023/09/06 02:22:41;;;;;;;554.83;177.30;;;;;;;;;;4974313;28;20038;-55
2023/09/06 02:25:08;;;;;;;529.87;177.13;;;;;;;;;;4978137;28;20026;-54
2023/09/06 02:27:33;;;;;;;482.10;182.02;;;;;;;;;;4995664;28;20256;-54
2023/09/06 02:29:59;;;;;;;516.00;169.65;;;;;;;;;;4995210;28;20563;-55
2023/09/06 02:32:26;;;;;;;495.80;159.68;;;;;;;;;;4998284;28;20125;-54
2023/09/06 02:34:51;;;;;;;456.75;164.68;;;;;;;;;;4994362;28;20099;-61
2023/09/06 02:37:16;;;;;;;514.08;159.82;;;;;;;;;;4995627;28;20042;-54
2023/09/06 02:39:42;;;;;;;493.40;142.33;;;;;;;;;;4997211;28;20053;-56
2023/09/06 02:42:07;;;;;;;437.57;140.63;;;;;;;;;;4992552;28;20268;-54
2023/09/06 02:44:32;;;;;;;505.73;145.23;;;;;;;;;;4995468;28;20277;-56
2023/09/06 02:46:58;;;;;;;491.07;161.20;;;;;;;;;;4995828;28;20266;-55
2023/09/06 02:49:27;;;;;;;467.77;128.93;;;;;;;;;;4997139;28;20368;-54
2023/09/06 02:51:52;;;;;;;435.23;138.93;;;;;;;;;;4996435;28;20037;-55
2023/09/06 02:54:17;;;;;;;431.92;141.73;;;;;;;;;;4999953;28;20023;-57
2023/09/06 02:56:45;;;;;;;457.07;148.97;;;;;;;;;;4997895;28;20578;-54
2023/09/06 02:59:15;;;;;;;535.53;167.05;;;;;;;;;;4998004;28;20986;-55
2023/09/06 03:01:47;;;;;;;498.20;169.35;;;;;;;;;;4998196;28;20125;-55
2023/09/06 03:04:13;;;;;;;521.95;158.25;;;;;;;;;;4994321;28;20141;-55
2023/09/06 03:06:39;;;;;;;491.42;154.98;;;;;;;;;;4992660;28;20421;-56
2023/09/06 03:09:06;;;;;;;439.50;143.98;;;;;;;;;;4998564;28;20056;-55
2023/09/06 03:11:31;;;;;;;495.77;149.15;;;;;;;;;;4996658;28;20045;-55
2023/09/06 03:13:57;;;;;;;524.03;165.65;;;;;;;;;;4996120;28;20034;-55
2023/09/06 03:16:22;;;;;;;787.95;182.00;;;;;;;;;;4993158;28;20164;-56
2023/09/06 03:18:49;;;;;;;541.03;167.77;;;;;;;;;;4996174;28;20033;-55
2023/09/06 03:21:16;;;;;;;541.70;154.73;;;;;;;;;;4996581;28;20265;-54
2023/09/06 03:23:44;;;;;;;495.55;166.57;;;;;;;;;;4996572;28;20584;-57
2023/09/06 03:26:10;;;;;;;542.33;173.20;;;;;;;;;;4998982;28;20228;-54
2023/09/06 03:28:40;;;;;;;515.72;175.10;;;;;;;;;;4996760;28;20021;-55
2023/09/06 03:31:09;;;;;;;531.40;170.88;;;;;;;;;;4998177;28;20238;-56
2023/09/06 03:33:35;;;;;;;501.20;177.00;;;;;;;;;;4992784;28;20205;-55
2023/09/06 03:36:01;;;;;;;534.38;185.15;;;;;;;;;;4994786;28;20042;-56
2023/09/06 03:38:26;;;;;;;542.03;186.63;;;;;;;;;;4993712;28;20022;-54
2023/09/06 03:40:52;;;;;;;573.70;189.80;;;;;;;;;;4993290;28;20042;-55
2023/09/06 03:43:19;;;;;;;548.28;193.88;;;;;;;;;;4996119;28;20026;-55
2023/09/06 03:45:53;;;;;;;525.85;192.05;;;;;;;;;;4995609;28;20587;-57
2023/09/06 03:48:20;;;;;;;584.35;194.60;;;;;;;;;;4994287;28;20702;-56
2023/09/06 03:50:48;;;;;;;467.23;181.10;;;;;;;;;;4996047;28;20270;-55
2023/09/06 03:53:15;;;;;;;542.10;182.43;;;;;;;;;;4994799;28;20294;-55
2023/09/06 03:55:41;;;;;;;526.70;183.05;;;;;;;;;;4994676;28;20038;-56
2023/09/06 03:58:07;;;;;;;514.83;178.68;;;;;;;;;;4991322;28;20087;-55
2023/09/06 04:00:32;;;;;;;604.17;192.65;;;;;;;;;;4992701;28;20030;-55
2023/09/06 04:02:58;;;;;;;519.55;182.80;;;;;;;;;;4996186;28;20105;-56
2023/09/06 04:05:27;;;;;;;514.20;186.75;;;;;;;;;;4991038;28;20623;-55
2023/09/06 04:07:59;;;;;;;540.17;195.52;;;;;;;;;;4990509;28;20033;-53
2023/09/06 04:10:25;;;;;;;433.13;145.18;;;;;;;;;;4995884;28;20028;-54
2023/09/06 04:12:50;;;;;;;493.55;136.20;;;;;;;;;;4992262;28;20037;-54
2023/09/06 04:15:16;;;;;;;439.55;112.00;;;;;;;;;;4994925;28;20440;-53
2023/09/06 04:17:41;;;;;;;393.02;108.03;;;;;;;;;;4995099;28;20432;-53
2023/09/06 04:20:44;;;;;;;472.53;111.97;;;;;;;;;;4994019;28;20378;-55
2023/09/06 04:22:59;;;;;;;402.92;104.03;;;;;;;;;;4994492;28;20284;-55
2023/09/06 04:25:26;;;;;;;422.67;102.95;;;;;;;;;;4992554;28;20049;-55
2023/09/06 04:27:54;;;;;;;339.48;90.25;;;;;;;;;;4993842;28;20045;-54
2023/09/06 04:30:24;;;;;;;402.35;100.97;;;;;;;;;;4994637;28;20033;-53
2023/09/06 04:32:49;;;;;;;446.45;94.78;;;;;;;;;;4993527;28;20018;-53
2023/09/06 04:35:15;;;;;;;392.42;95.13;;;;;;;;;;4990265;28;20397;-54
2023/09/06 04:37:40;;;;;;;365.65;100.95;;;;;;;;;;4992136;28;20506;-55
2023/09/06 04:40:08;;;;;;;492.90;112.35;;;;;;;;;;4997516;28;20563;-53
2023/09/06 04:42:33;;;;;;;443.70;130.43;;;;;;;;;;4989538;28;20116;-53
2023/09/06 04:44:58;;;;;;;401.35;120.13;;;;;;;;;;4997029;28;20083;-54
2023/09/06 04:47:23;;;;;;;477.30;142.80;;;;;;;;;;4999624;28;20030;-53
2023/09/06 04:49:49;;;;;;;493.60;141.18;;;;;;;;;;4993834;28;20080;-53
2023/09/06 04:52:14;;;;;;;432.30;127.30;;;;;;;;;;4993104;28;20026;-54
2023/09/06 04:54:39;;;;;;;453.95;123.60;;;;;;;;;;4990632;28;20269;-53
2023/09/06 04:57:04;;;;;;;474.05;143.57;;;;;;;;;;4991657;28;20623;-55
2023/09/06 04:59:33;;;;;;;416.97;120.30;;;;;;;;;;4996754;28;20018;-54
2023/09/06 05:01:58;;;;;;;412.08;98.88;;;;;;;;;;4992756;28;20357;-56
2023/09/06 05:04:23;;;;;;;415.73;124.30;;;;;;;;;;4992584;28;20034;-55
2023/09/06 05:06:49;;;;;;;453.03;133.50;;;;;;;;;;4992854;28;20068;-54
2023/09/06 05:09:15;;;;;;;455.27;145.07;;;;;;;;;;4997400;28;20761;-55
2023/09/06 05:11:41;;;;;;;500.45;153.98;;;;;;;;;;4993735;28;20368;-53
2023/09/06 05:14:06;;;;;;;436.98;113.97;;;;;;;;;;4995815;28;20040;-55
2023/09/06 05:16:31;;;;;;;479.30;121.97;;;;;;;;;;4988333;28;20614;-53
2023/09/06 05:18:57;;;;;;;501.52;114.40;;;;;;;;;;4988034;28;20608;-52
2023/09/06 05:21:22;;;;;;;464.58;115.38;;;;;;;;;;4990706;28;20037;-53
2023/09/06 05:23:47;;;;;;;483.93;136.60;;;;;;;;;;4994345;28;20032;-54
2023/09/06 05:26:12;;;;;;;443.77;129.03;;;;;;;;;;4997494;28;20278;-56
2023/09/06 05:28:38;;;;;;;455.77;128.23;;;;;;;;;;4996546;28;20276;-55
2023/09/06 05:31:03;;;;;;;474.23;117.90;;;;;;;;;;4992035;28;20772;-56
2023/09/06 05:33:28;;;;;;;394.63;97.43;;;;;;;;;;4992551;28;20029;-56
2023/09/06 05:35:57;;;;;;;400.43;104.47;;;;;;;;;;4990393;28;20310;-57
2023/09/06 05:38:22;;;;;;;410.63;97.68;;;;;;;;;;4995070;28;20774;-55
2023/09/06 05:40:49;;;;;;;386.65;92.35;;;;;;;;;;4996970;28;20564;-54
2023/09/06 05:43:14;;;;;;;331.63;79.18;;;;;;;;;;4993258;28;20161;-56
2023/09/06 05:45:39;;;;;;;404.63;105.20;;;;;;;;;;4994522;28;20286;-56
2023/09/06 05:48:05;;;;;;;373.13;91.13;;;;;;;;;;4992718;28;20543;-56
2023/09/06 05:50:30;;;;;;;408.75;99.53;;;;;;;;;;4989472;28;20153;-54
2023/09/06 05:52:56;;;;;;;467.98;105.30;;;;;;;;;;4991235;28;20783;-60
2023/09/06 05:55:21;;;;;;;392.27;96.30;;;;;;;;;;4994562;28;20026;-57
2023/09/06 05:57:46;;;;;;;394.42;94.40;;;;;;;;;;4997067;28;20255;-56
2023/09/06 06:00:12;;;;;;;446.53;101.23;;;;;;;;;;4992187;28;20033;-55
2023/09/06 06:02:41;;;;;;;445.67;96.95;;;;;;;;;;4994702;28;20250;-55
2023/09/06 06:05:07;;;;;;;408.35;96.90;;;;;;;;;;4993677;28;20027;-57
2023/09/06 06:07:33;;;;;;;419.48;98.10;;;;;;;;;;4993711;28;20202;-56
2023/09/06 06:09:59;;;;;;;376.85;89.43;;;;;;;;;;4992199;28;20239;-57
2023/09/06 06:12:24;;;;;;;398.00;100.60;;;;;;;;;;4989709;28;20108;-56
2023/09/06 06:14:52;;;;;;;481.40;113.03;;;;;;;;;;4990255;28;20962;-56
2023/09/06 06:17:18;;;;;;;446.42;117.45;;;;;;;;;;4989476;28;20038;-55
2023/09/06 06:19:44;;;;;;;463.05;116.90;;;;;;;;;;4989968;28;20395;-57
2023/09/06 06:22:09;;;;;;;486.63;118.43;;;;;;;;;;4988850;28;20045;-55
2023/09/06 06:24:35;;;;;;;468.75;120.50;;;;;;;;;;4993279;28;20112;-56
2023/09/06 06:27:00;;;;;;;449.15;117.13;;;;;;;;;;4993381;28;20518;-55
2023/09/06 06:29:26;;;;;;;470.98;119.07;;;;;;;;;;4994651;28;20032;-53
2023/09/06 06:31:52;;;;;;;396.73;110.25;;;;;;;;;;4988935;28;20377;-52
2023/09/06 06:34:18;;;;;;;467.73;123.55;;;;;;;;;;4992132;28;20745;-53
2023/09/06 06:36:45;;;;;;;509.17;127.80;;;;;;;;;;4991446;28;20547;-54
2023/09/06 06:39:11;;;;;;;465.02;119.00;;;;;;;;;;4993770;28;20112;-54
2023/09/06 06:41:36;;;;;;;478.35;143.55;;;;;;;;;;4992164;28;20044;-53
2023/09/06 06:44:01;;;;;;;446.37;109.63;;;;;;;;;;4992103;28;20443;-54
2023/09/06 06:46:28;;;;;;;420.02;113.55;;;;;;;;;;4992866;28;20027;-53
2023/09/06 06:48:54;;;;;;;541.50;206.82;;;;;;;;;;4993020;28;20018;-53
2023/09/06 06:51:19;;;;;;;538.92;216.75;;;;;;;;;;4992231;28;20042;-53
2023/09/06 06:53:45;;;;;;;555.47;341.47;;;;;;;;;;4991304;28;20019;-54
2023/09/06 06:56:10;;;;;;;524.13;209.47;;;;;;;;;;4989539;28;20682;-54
2023/09/06 06:58:35;;;;;;;581.57;245.50;;;;;;;;;;4990352;28;20014;-53
2023/09/06 07:01:00;;;;;;;664.60;406.90;;;;;;;;;;4993896;28;20034;-53
2023/09/06 07:03:26;;;;;;;476.43;218.23;;;;;;;;;;4984373;28;20049;-54
2023/09/06 07:05:51;;;;;;;713.83;389.17;;;;;;;;;;4989158;28;20057;-56
2023/09/06 07:08:17;;;;;;;563.83;348.98;;;;;;;;;;4992750;28;20209;-54
2023/09/06 07:10:42;;;;;;;621.70;398.70;;;;;;;;;;4997313;28;20177;-55
2023/09/06 07:13:07;;;;;;;652.67;361.63;;;;;;;;;;4996609;28;20080;-55
2023/09/06 07:15:32;;;;;;;662.47;439.67;;;;;;;;;;4999808;28;20122;-57
2023/09/06 07:18:01;;;;;;;599.87;222.57;;;;;;;;;;4998114;28;20411;-57
2023/09/06 07:20:26;;;;;;;647.75;370.17;;;;;;;;;;4995438;28;20117;-56
2023/09/06 07:22:51;;;;;;;826.20;498.10;;;;;;;;;;4997581;28;20129;-56
2023/09/06 07:25:17;;;;;;;541.87;246.37;;;;;;;;;;4999541;28;20802;-55
2023/09/06 07:27:43;;;;;;;629.17;353.87;;;;;;;;;;4999743;28;20021;-55
2023/09/06 07:30:09;;;;;;;622.72;340.90;;;;;;;;;;4996551;28;20112;-57
2023/09/06 07:32:34;;;;;;;509.70;312.98;;;;;;;;;;4997772;28;20097;-55
2023/09/06 07:34:59;;;;;;;653.70;342.50;;;;;;;;;;4996558;28;20552;-55
2023/09/06 07:37:25;;;;;;;586.97;335.90;;;;;;;;;;4998142;28;20454;-55
2023/09/06 07:39:51;;;;;;;554.97;330.27;;;;;;;;;;4996668;28;20105;-56
2023/09/06 07:42:16;;;;;;;548.45;342.52;;;;;;;;;;4995675;28;20430;-56
2023/09/06 07:44:42;;;;;;;743.23;441.77;;;;;;;;;;4995816;28;20037;-54
2023/09/06 07:47:07;;;;;;;585.47;369.90;;;;;;;;;;4994612;28;20057;-58
2023/09/06 07:49:32;;;;;;;615.97;386.37;;;;;;;;;;4998291;28;20017;-55
2023/09/06 07:51:57;;;;;;;949.25;518.67;;;;;;;;;;4997457;28;20033;-56
2023/09/06 07:54:23;;;;;;;546.23;318.03;;;;;;;;;;4997532;28;20024;-56
2023/09/06 07:56:49;;;;;;;619.85;340.17;;;;;;;;;;4994340;28;20269;-55
2023/09/06 07:59:15;;;;;;;603.95;424.48;;;;;;;;;;4998415;28;20475;-54
2023/09/06 08:01:41;;;;;;;600.50;272.90;;;;;;;;;;4996520;28;20420;-54
2023/09/06 08:04:08;;;;;;;772.47;394.33;;;;;;;;;;4997560;28;20454;-54
2023/09/06 08:06:33;;;;;;;597.15;371.20;;;;;;;;;;4993871;28;20030;-55
2023/09/06 08:08:58;;;;;;;716.33;409.27;;;;;;;;;;4994871;28;20018;-54
2023/09/06 08:11:24;;;;;;;574.83;342.67;;;;;;;;;;4995115;28;20031;-56
2023/09/06 08:13:49;;;;;;;552.35;361.45;;;;;;;;;;4996259;28;20446;-54
2023/09/06 08:16:14;;;;;;;625.97;372.90;;;;;;;;;;4992111;28;20049;-55
2023/09/06 08:18:40;;;;;;;567.67;361.35;;;;;;;;;;4995396;28;20546;-54
2023/09/06 08:21:07;;;;;;;692.25;343.17;;;;;;;;;;4995232;28;20563;-56
2023/09/06 08:23:32;;;;;;;637.63;386.73;;;;;;;;;;4996685;28;20117;-55
2023/09/06 08:25:58;;;;;;;581.70;224.73;;;;;;;;;;4994222;28;20116;-56
2023/09/06 08:28:23;;;;;;;614.40;418.33;;;;;;;;;;4992344;28;20029;-57
2023/09/06 08:30:49;;;;;;;510.23;348.10;;;;;;;;;;4994459;28;20499;-55
2023/09/06 08:33:15;;;;;;;536.72;368.80;;;;;;;;;;4993020;28;20554;-58
2023/09/06 08:35:40;;;;;;;577.93;352.17;;;;;;;;;;4994196;28;20030;-57
2023/09/06 08:38:05;;;;;;;709.73;437.60;;;;;;;;;;5011222;28;20038;-56
2023/09/06 08:40:30;;;;;;;445.13;311.33;;;;;;;;;;4991387;28;20038;-56
2023/09/06 08:43:01;;;;;;;476.27;354.43;;;;;;;;;;4992740;28;20018;-56
2023/09/06 08:45:27;;;;;;;;;;;;;;;;;;4995885;28;20892;-57
2023/09/06 08:47:52;;;;;;;451.00;320.05;;;;;;;;;;4993427;28;20770;-55
2023/09/06 08:50:18;;;;;;;356.25;219.52;;;;;;;;;;4996357;28;20521;-56
2023/09/06 08:52:44;;;;;;;412.00;272.92;;;;;;;;;;4995098;28;20023;-56
2023/09/06 08:55:10;;;;;;;585.20;334.20;;;;;;;;;;4996865;28;20465;-57
2023/09/06 08:57:36;;;;;;;428.23;317.23;;;;;;;;;;4997302;28;20019;-56
2023/09/06 09:00:03;;;;;;;656.05;348.45;;;;;;;;;;4994617;28;20607;-56
2023/09/06 09:02:28;;;;;;;510.50;240.10;;;;;;;;;;4999631;28;20030;-56
2023/09/06 09:04:53;;;;;;;529.27;384.53;;;;;;;;;;4996795;28;20034;-56
2023/09/06 09:07:18;;;;;;;564.07;444.93;;;;;;;;;;4995545;28;20468;-56
2023/09/06 09:10:04;;;;;;;460.73;348.57;;;;;;;;;;4995197;28;20229;-57
2023/09/06 09:12:29;;;;;;;459.05;334.10;;;;;;;;;;4996983;28;20268;-55
2023/09/06 09:14:56;;;;;;;433.23;314.33;;;;;;;;;;4993525;28;20111;-57
2023/09/06 09:17:22;;;;;;;442.50;342.92;;;;;;;;;;4996081;28;20280;-56
2023/09/06 09:19:49;;;;;;;548.30;410.92;;;;;;;;;;4997105;28;20026;-56
2023/09/06 09:22:14;;;;;;;462.20;371.70;;;;;;;;;;4997166;28;20311;-56
2023/09/06 09:24:40;;;;;;;448.90;342.27;;;;;;;;;;4994734;28;20116;-58
2023/09/06 09:27:05;;;;;;;650.30;411.33;;;;;;;;;;4991508;28;20352;-57
2023/09/06 09:29:30;;;;;;;575.20;363.40;;;;;;;;;;4997244;28;20250;-56
2023/09/06 09:32:00;;;;;;;479.67;349.37;;;;;;;;;;4994038;28;20265;-55
2023/09/06 09:34:25;;;;;;;607.03;486.77;;;;;;;;;;4996422;28;20322;-57
2023/09/06 09:36:51;;;;;;;540.95;362.58;;;;;;;;;;4993723;28;20038;-57
2023/09/06 09:39:18;;;;;;;774.88;518.50;;;;;;;;;;4994610;28;20025;-57
2023/09/06 09:41:43;;;;;;;514.22;366.00;;;;;;;;;;4993660;28;20038;-57
2023/09/06 09:44:14;;;;;;;738.67;437.77;;;;;;;;;;4993545;28;20033;-57
2023/09/06 09:46:43;;;;;;;568.03;368.08;;;;;;;;;;4991873;28;20081;-55
2023/09/06 09:49:10;;;;;;;715.83;401.00;;;;;;;;;;4993284;28;20428;-56
2023/09/06 09:51:36;;;;;;;591.78;382.58;;;;;;;;;;4992554;28;20121;-56
2023/09/06 09:54:03;;;;;;;714.72;446.95;;;;;;;;;;4995812;28;20018;-56
2023/09/06 09:56:28;;;;;;;713.08;464.63;;;;;;;;;;4993003;28;20025;-57
2023/09/06 09:58:54;;;;;;;393.02;257.45;;;;;;;;;;4996089;28;20022;-56
2023/09/06 10:01:20;;;;;;;640.80;445.02;;;;;;;;;;4993148;28;20545;-57
2023/09/06 10:03:47;;;;;;;489.90;375.52;;;;;;;;;;4996064;28;20484;-56
2023/09/06 10:06:12;;;;;;;493.25;286.45;;;;;;;;;;4996954;28;20046;-55
2023/09/06 10:08:39;;;;;;;427.40;319.33;;;;;;;;;;4997052;28;20356;-55
2023/09/06 10:11:06;;;;;;;519.10;276.10;;;;;;;;;;4993939;28;20140;-57
2023/09/06 10:13:32;;;;;;;475.95;349.80;;;;;;;;;;4991667;28;20026;-58
2023/09/06 10:15:57;;;;;;;495.13;348.10;;;;;;;;;;4993907;28;20205;-56
2023/09/06 10:18:22;;;;;;;680.35;422.75;;;;;;;;;;4994163;28;20116;-58
2023/09/06 10:20:48;;;;;;;399.90;279.60;;;;;;;;;;4995650;28;20037;-55
2023/09/06 10:23:14;;;;;;;548.38;292.60;;;;;;;;;;4995607;28;20403;-56
2023/09/06 10:25:40;;;;;;;756.58;464.30;;;;;;;;;;4996833;28;20668;-58
2023/09/06 10:28:05;;;;;;;595.70;327.40;;;;;;;;;;4997759;28;20030;-58
2023/09/06 10:30:43;;;;;;;495.73;356.23;;;;;;;;;;4993207;28;20035;-58
2023/09/06 10:33:09;;;;;;;656.65;385.88;;;;;;;;;;4993515;28;20165;-56
2023/09/06 10:35:41;;;;;;;555.58;349.75;;;;;;;;;;4995354;28;20029;-57
2023/09/06 10:38:07;;;;;;;605.88;310.60;;;;;;;;;;4992814;28;20477;-56
2023/09/06 10:40:48;;;;;;;539.25;320.55;;;;;;;;;;4990864;28;20035;-57
2023/09/06 10:43:13;;;;;;;591.72;326.08;;;;;;;;;;4996308;28;20037;-55
2023/09/06 10:45:40;;;;;;;571.17;417.08;;;;;;;;;;4997711;28;20061;-57
2023/09/06 10:48:09;;;;;;;568.00;333.75;;;;;;;;;;4998609;28;20478;-56
2023/09/06 10:50:36;;;;;;;433.38;239.00;;;;;;;;;;4996599;28;20565;-57
2023/09/06 10:53:02;;;;;;;566.10;338.88;;;;;;;;;;4997329;28;20108;-57
2023/09/06 10:55:27;;;;;;;475.65;300.55;;;;;;;;;;4999906;28;20129;-57
2023/09/06 10:57:57;;;;;;;476.27;304.70;;;;;;;;;;5001460;28;20041;-56
2023/09/06 11:00:26;;;;;;;462.63;280.98;;;;;;;;;;4995657;28;20030;-57
2023/09/06 11:03:06;;;;;;;532.45;376.45;;;;;;;;;;4998618;28;20025;-57
2023/09/06 11:05:35;;;;;;;560.22;354.15;;;;;;;;;;4997258;28;20033;-57
2023/09/06 11:08:00;;;;;;;482.52;318.38;;;;;;;;;;4999365;28;20021;-58
2023/09/06 11:10:26;;;;;;;513.97;356.45;;;;;;;;;;4999183;28;20051;-58
2023/09/06 11:12:55;;;;;;;511.63;366.17;;;;;;;;;;4994520;28;20979;-57
2023/09/06 11:15:21;;;;;;;522.83;339.48;;;;;;;;;;4997774;28;20033;-55
2023/09/06 11:17:46;;;;;;;533.75;326.23;;;;;;;;;;4998247;28;20018;-56
2023/09/06 11:20:12;;;;;;;677.97;368.60;;;;;;;;;;4996939;28;20474;-55
2023/09/06 11:22:46;;;;;;;521.55;356.60;;;;;;;;;;5001250;28;20522;-56
2023/09/06 11:25:18;;;;;;;687.17;349.15;;;;;;;;;;4992401;28;20810;-57
2023/09/06 11:27:45;;;;;;;504.05;284.33;;;;;;;;;;5001002;28;20018;-57
2023/09/06 11:30:15;;;;;;;627.38;309.20;;;;;;;;;;4996156;28;20045;-55
2023/09/06 11:32:41;;;;;;;536.53;314.08;;;;;;;;;;4998371;28;20022;-58
2023/09/06 11:35:08;;;;;;;471.15;256.00;;;;;;;;;;4995898;28;20400;-56
2023/09/06 11:37:37;;;;;;;470.13;324.35;;;;;;;;;;5000478;28;20010;-55
2023/09/06 11:40:12;;;;;;;479.27;356.25;;;;;;;;;;4998979;28;20408;-54
2023/09/06 11:42:38;;;;;;;458.25;328.02;;;;;;;;;;5002637;28;20037;-56
2023/09/06 11:45:06;;;;;;;521.85;355.15;;;;;;;;;;5000489;28;20383;-54
2023/09/06 11:47:32;;;;;;;414.15;302.15;;;;;;;;;;4995661;28;20038;-57
2023/09/06 11:49:59;;;;;;;394.77;289.55;;;;;;;;;;4998777;28;20395;-57
2023/09/06 11:52:24;;;;;;;412.90;245.82;;;;;;;;;;4992323;28;20065;-55
2023/09/06 11:54:50;;;;;;;376.83;257.00;;;;;;;;;;4996782;28;20133;-56
2023/09/06 11:57:26;;;;;;;453.70;247.25;;;;;;;;;;4993525;28;20280;-56
2023/09/06 11:59:57;;;;;;;460.80;285.08;;;;;;;;;;4994914;28;20033;-54
2023/09/06 12:02:25;;;;;;;353.50;217.95;;;;;;;;;;4997665;28;20463;-54
2023/09/06 12:04:51;;;;;;;326.63;176.48;;;;;;;;;;4995372;28;20539;-54
2023/09/06 12:07:21;;;;;;;529.22;284.02;;;;;;;;;;4993634;28;20384;-56
2023/09/06 12:09:48;;;;;;;441.52;306.33;;;;;;;;;;4995662;28;20087;-57
2023/09/06 12:12:16;;;;;;;598.25;317.52;;;;;;;;;;4996727;28;20030;-54
2023/09/06 12:14:42;;;;;;;426.17;290.75;;;;;;;;;;4996246;28;20430;-54
2023/09/06 12:17:07;;;;;;;473.15;272.50;;;;;;;;;;4994188;28;20165;-54
2023/09/06 12:19:33;;;;;;;452.77;302.33;;;;;;;;;;4995918;28;20145;-53
2023/09/06 12:21:59;;;;;;;489.13;319.75;;;;;;;;;;4996723;28;20030;-54
2023/09/06 12:24:24;;;;;;;461.63;343.33;;;;;;;;;;4993059;28;20068;-55
2023/09/06 12:26:49;;;;;;;468.45;340.35;;;;;;;;;;4998937;28;20493;-55
2023/09/06 12:29:15;;;;;;;720.90;360.35;;;;;;;;;;5001786;28;20301;-55
2023/09/06 12:31:40;;;;;;;520.90;332.97;;;;;;;;;;4992648;28;20613;-56
2023/09/06 12:34:06;;;;;;;614.20;411.13;;;;;;;;;;4996646;28;20080;-56
2023/09/06 12:36:31;;;;;;;504.55;332.27;;;;;;;;;;4996438;28;20026;-55
2023/09/06 12:38:56;;;;;;;455.88;337.05;;;;;;;;;;4997358;28;20263;-54
2023/09/06 12:41:22;;;;;;;658.70;433.50;;;;;;;;;;4992840;28;20034;-56
2023/09/06 12:43:47;;;;;;;596.10;378.50;;;;;;;;;;4996516;28;20045;-57
2023/09/06 12:46:12;;;;;;;482.55;243.65;;;;;;;;;;4998336;28;20284;-56
2023/09/06 12:48:38;;;;;;;480.27;263.50;;;;;;;;;;4999447;28;20479;-57
2023/09/06 12:51:05;;;;;;;486.70;349.25;;;;;;;;;;4995467;28;20110;-57
2023/09/06 12:53:32;;;;;;;491.88;309.63;;;;;;;;;;4995586;28;20022;-57
2023/09/06 12:55:57;;;;;;;505.63;344.17;;;;;;;;;;4994813;28;20511;-57
2023/09/06 12:58:22;;;;;;;609.57;353.03;;;;;;;;;;4994322;28;20026;-56
2023/09/06 13:00:47;;;;;;;526.23;339.90;;;;;;;;;;4989014;28;20270;-56
2023/09/06 13:03:13;;;;;;;496.03;158.43;;;;;;;;;;4990774;28;20045;-56
2023/09/06 13:05:41;;;;;;;452.30;287.80;;;;;;;;;;4995161;28;20451;-56
2023/09/06 13:08:06;;;;;;;567.63;385.23;;;;;;;;;;4996860;28;20269;-55
2023/09/06 13:10:32;;;;;;;486.80;301.33;;;;;;;;;;4994105;28;20401;-55
2023/09/06 13:12:58;;;;;;;387.33;226.40;;;;;;;;;;4992310;28;20319;-57
2023/09/06 13:15:23;;;;;;;614.45;359.30;;;;;;;;;;4992051;28;20022;-58
2023/09/06 13:17:48;;;;;;;427.30;313.13;;;;;;;;;;4994038;28;20333;-56
2023/09/06 13:20:13;;;;;;;637.73;376.63;;;;;;;;;;4989943;28;20022;-57
2023/09/06 13:22:42;;;;;;;360.07;229.00;;;;;;;;;;4995057;28;20018;-56
2023/09/06 13:25:07;;;;;;;408.67;216.48;;;;;;;;;;4993781;28;20021;-56
2023/09/06 13:27:33;;;;;;;510.23;384.23;;;;;;;;;;4994788;28;20306;-58
2023/09/06 13:29:58;;;;;;;679.42;399.95;;;;;;;;;;4996702;28;20378;-57
2023/09/06 13:32:25;;;;;;;563.53;311.27;;;;;;;;;;4992998;28;20039;-57
2023/09/06 13:34:51;;;;;;;485.80;299.65;;;;;;;;;;4993050;28;20356;-56
2023/09/06 13:37:16;;;;;;;645.00;377.83;;;;;;;;;;4996078;28;20467;-55
2023/09/06 13:39:42;;;;;;;396.80;223.85;;;;;;;;;;4996603;28;20120;-55
2023/09/06 13:42:08;;;;;;;679.33;420.80;;;;;;;;;;4996385;28;20095;-57
2023/09/06 13:44:35;;;;;;;468.83;309.20;;;;;;;;;;4992618;28;20029;-55
2023/09/06 13:47:01;;;;;;;501.38;320.77;;;;;;;;;;4993854;28;20053;-57
2023/09/06 13:49:26;;;;;;;618.22;355.75;;;;;;;;;;4993102;28;20064;-55